createdAt,value
2017-10-30T00:00:00.032Z,0
2017-10-30T00:01:00.985Z,0
2017-10-30T00:02:01.019Z,0
2017-10-30T00:03:00.613Z,0
2017-10-30T00:04:00.605Z,0
2017-10-30T00:05:00.563Z,0
2017-10-30T00:06:00.614Z,0
2017-10-30T00:07:00.577Z,0
2017-10-30T00:08:00.508Z,0
2017-10-30T00:08:59.892Z,0
2017-10-30T00:10:00.139Z,0
2017-10-30T00:11:00.445Z,0
2017-10-30T00:12:00.869Z,0
2017-10-30T00:13:00.161Z,0
2017-10-30T00:14:00.771Z,0
2017-10-30T00:15:00.362Z,0
2017-10-30T00:16:00.703Z,0
2017-10-30T00:17:00.334Z,0
2017-10-30T00:18:00.414Z,0
2017-10-30T00:18:59.930Z,0
2017-10-30T00:20:00.640Z,0
2017-10-30T00:21:00.583Z,0
2017-10-30T00:22:00.264Z,0
2017-10-30T00:23:00.180Z,0
2017-10-30T00:24:00.168Z,0
2017-10-30T00:25:00.209Z,0
2017-10-30T00:26:00.150Z,0
2017-10-30T00:27:00.079Z,0
2017-10-30T00:28:00.146Z,0
2017-10-30T00:29:00.342Z,0
2017-10-30T00:30:00.006Z,0
2017-10-30T00:31:00.356Z,0
2017-10-30T00:32:00.024Z,0
2017-10-30T00:32:59.970Z,0
2017-10-30T00:34:00.268Z,0
2017-10-30T00:34:59.911Z,0
2017-10-30T00:36:00.238Z,0
2017-10-30T00:36:59.210Z,0
2017-10-30T00:37:59.832Z,0
2017-10-30T00:38:59.481Z,0
2017-10-30T00:40:00.105Z,0
2017-10-30T00:41:00.090Z,0
2017-10-30T00:42:00.077Z,0
2017-10-30T00:43:00.118Z,0
2017-10-30T00:43:59.733Z,0
2017-10-30T00:44:59.983Z,0
2017-10-30T00:45:59.992Z,0
2017-10-30T00:47:00.064Z,0
2017-10-30T00:47:59.611Z,0
2017-10-30T00:48:59.634Z,0
2017-10-30T00:49:59.881Z,0
2017-10-30T00:50:59.244Z,0
2017-10-30T00:51:59.621Z,0
2017-10-30T00:52:59.885Z,0
2017-10-30T00:53:59.872Z,0
2017-10-30T00:54:59.471Z,0
2017-10-30T00:55:59.876Z,0
2017-10-30T00:56:59.465Z,0
2017-10-30T00:57:58.731Z,0
2017-10-30T00:58:59.873Z,0
2017-10-30T00:59:59.030Z,0
2017-10-30T01:00:59.413Z,0
2017-10-30T01:01:59.628Z,0
2017-10-30T01:02:58.948Z,0
2017-10-30T01:03:58.947Z,0
2017-10-30T01:04:58.905Z,0
2017-10-30T01:05:59.334Z,0
2017-10-30T01:06:58.857Z,0
2017-10-30T01:07:58.840Z,0
2017-10-30T01:08:59.134Z,0
2017-10-30T01:09:58.801Z,0
2017-10-30T01:10:59.154Z,0
2017-10-30T01:11:58.746Z,0
2017-10-30T01:12:59.515Z,0
2017-10-30T01:13:58.712Z,0
2017-10-30T01:14:58.360Z,0
2017-10-30T01:15:58.656Z,0
2017-10-30T01:16:58.325Z,0
2017-10-30T01:17:58.291Z,0
2017-10-30T01:18:58.595Z,0
2017-10-30T01:19:58.574Z,0
2017-10-30T01:20:58.555Z,0
2017-10-30T01:21:58.537Z,0
2017-10-30T01:22:58.830Z,0
2017-10-30T01:23:59.130Z,0
2017-10-30T01:24:58.861Z,0
2017-10-30T01:25:58.759Z,0
2017-10-30T01:26:59.373Z,0
2017-10-30T01:27:58.726Z,0
2017-10-30T01:28:57.722Z,0
2017-10-30T01:29:59.023Z,0
2017-10-30T01:30:58.324Z,0
2017-10-30T01:31:58.644Z,0
2017-10-30T01:32:57.972Z,0
2017-10-30T01:33:58.269Z,0
2017-10-30T01:34:58.893Z,0
2017-10-30T01:35:58.224Z,0
2017-10-30T01:36:58.555Z,0
2017-10-30T01:37:58.173Z,0
2017-10-30T01:38:58.144Z,0
2017-10-30T01:39:58.457Z,0
2017-10-30T01:40:58.100Z,0
2017-10-30T01:41:57.764Z,0
2017-10-30T01:42:58.400Z,0
2017-10-30T01:43:58.140Z,0
2017-10-30T01:44:58.035Z,0
2017-10-30T01:45:58.001Z,0
2017-10-30T01:46:58.297Z,0
2017-10-30T01:47:58.631Z,0
2017-10-30T01:48:57.931Z,0
2017-10-30T01:49:57.905Z,0
2017-10-30T01:50:57.560Z,0
2017-10-30T01:51:57.892Z,0
2017-10-30T01:52:57.511Z,0
2017-10-30T01:53:58.142Z,0
2017-10-30T01:54:58.452Z,0
2017-10-30T01:55:58.150Z,0
2017-10-30T01:56:58.084Z,0
2017-10-30T01:57:57.776Z,0
2017-10-30T01:58:58.034Z,0
2017-10-30T01:59:58.025Z,0
2017-10-30T02:00:58.313Z,0
2017-10-30T02:01:57.648Z,0
2017-10-30T02:02:57.644Z,0
2017-10-30T02:03:57.604Z,0
2017-10-30T02:04:57.907Z,0
2017-10-30T02:05:57.551Z,0
2017-10-30T02:06:58.190Z,0
2017-10-30T02:07:57.825Z,0
2017-10-30T02:08:57.809Z,0
2017-10-30T02:09:57.794Z,0
2017-10-30T02:10:57.762Z,0
2017-10-30T02:11:58.073Z,0
2017-10-30T02:12:57.403Z,0
2017-10-30T02:13:57.789Z,0
2017-10-30T02:14:57.675Z,0
2017-10-30T02:15:57.342Z,0
2017-10-30T02:16:57.621Z,0
2017-10-30T02:17:56.972Z,0
2017-10-30T02:18:57.592Z,0
2017-10-30T02:19:57.590Z,0
2017-10-30T02:20:57.542Z,0
2017-10-30T02:21:57.835Z,0
2017-10-30T02:22:56.891Z,0
2017-10-30T02:23:57.251Z,0
2017-10-30T02:24:57.821Z,0
2017-10-30T02:25:57.770Z,0
2017-10-30T02:26:57.807Z,0
2017-10-30T02:27:57.383Z,0
2017-10-30T02:28:57.680Z,0
2017-10-30T02:29:57.371Z,0
2017-10-30T02:30:57.621Z,0
2017-10-30T02:31:57.671Z,0
2017-10-30T02:32:57.590Z,0
2017-10-30T02:33:57.632Z,0
2017-10-30T02:34:57.570Z,0
2017-10-30T02:35:57.202Z,0
2017-10-30T02:36:56.869Z,0
2017-10-30T02:37:57.554Z,0
2017-10-30T02:38:56.478Z,0
2017-10-30T02:39:56.786Z,0
2017-10-30T02:40:57.424Z,0
2017-10-30T02:41:57.462Z,0
2017-10-30T02:42:56.720Z,0
2017-10-30T02:43:56.768Z,0
2017-10-30T02:44:56.032Z,0
2017-10-30T02:45:57.296Z,0
2017-10-30T02:46:56.638Z,0
2017-10-30T02:47:56.629Z,0
2017-10-30T02:48:56.911Z,0
2017-10-30T02:49:57.237Z,0
2017-10-30T02:50:56.892Z,0
2017-10-30T02:51:57.188Z,0
2017-10-30T02:52:56.499Z,0
2017-10-30T02:53:57.140Z,0
2017-10-30T02:54:57.168Z,0
2017-10-30T02:55:56.442Z,0
2017-10-30T02:56:56.479Z,0
2017-10-30T02:57:56.395Z,0
2017-10-30T02:58:56.402Z,0
2017-10-30T02:59:56.335Z,0
2017-10-30T03:00:56.753Z,0
2017-10-30T03:01:56.956Z,0
2017-10-30T03:02:56.038Z,0
2017-10-30T03:03:56.261Z,0
2017-10-30T03:04:56.933Z,0
2017-10-30T03:05:56.533Z,0
2017-10-30T03:06:56.302Z,0
2017-10-30T03:07:56.532Z,0
2017-10-30T03:08:56.187Z,0
2017-10-30T03:09:56.441Z,0
2017-10-30T03:10:56.434Z,0
2017-10-30T03:11:56.441Z,0
2017-10-30T03:12:56.463Z,0
2017-10-30T03:13:56.707Z,0
2017-10-30T03:14:56.695Z,0
2017-10-30T03:15:55.396Z,0
2017-10-30T03:16:55.982Z,0
2017-10-30T03:17:55.987Z,0
2017-10-30T03:18:55.921Z,0
2017-10-30T03:19:56.217Z,0
2017-10-30T03:20:56.286Z,0
2017-10-30T03:21:56.608Z,0
2017-10-30T03:22:56.156Z,0
2017-10-30T03:23:56.125Z,0
2017-10-30T03:24:55.890Z,0
2017-10-30T03:25:55.816Z,0
2017-10-30T03:26:56.171Z,0
2017-10-30T03:27:55.772Z,0
2017-10-30T03:28:55.703Z,0
2017-10-30T03:29:56.392Z,0
2017-10-30T03:30:56.064Z,0
2017-10-30T03:31:56.336Z,0
2017-10-30T03:32:55.728Z,0
2017-10-30T03:33:56.260Z,0
2017-10-30T03:34:55.880Z,0
2017-10-30T03:35:56.316Z,0
2017-10-30T03:36:55.207Z,0
2017-10-30T03:37:55.488Z,0
2017-10-30T03:38:55.464Z,0
2017-10-30T03:39:55.791Z,0
2017-10-30T03:40:56.083Z,0
2017-10-30T03:41:55.723Z,0
2017-10-30T03:42:55.362Z,0
2017-10-30T03:43:54.706Z,0
2017-10-30T03:44:55.646Z,0
2017-10-30T03:45:54.983Z,0
2017-10-30T03:46:55.616Z,0
2017-10-30T03:47:55.262Z,0
2017-10-30T03:48:55.235Z,0
2017-10-30T03:49:55.530Z,0
2017-10-30T03:50:55.557Z,0
2017-10-30T03:51:55.500Z,0
2017-10-30T03:52:55.485Z,0
2017-10-30T03:53:55.788Z,0
2017-10-30T03:54:55.102Z,0
2017-10-30T03:55:55.433Z,0
2017-10-30T03:56:55.367Z,0
2017-10-30T03:57:55.033Z,0
2017-10-30T03:58:55.125Z,0
2017-10-30T03:59:54.985Z,0
2017-10-30T04:00:55.300Z,0
2017-10-30T04:01:54.936Z,0
2017-10-30T04:02:54.948Z,0
2017-10-30T04:03:55.300Z,0
2017-10-30T04:04:55.275Z,0
2017-10-30T04:05:54.855Z,0
2017-10-30T04:06:55.512Z,0
2017-10-30T04:07:55.199Z,0
2017-10-30T04:08:54.807Z,0
2017-10-30T04:09:55.083Z,0
2017-10-30T04:10:54.761Z,0
2017-10-30T04:11:55.396Z,0
2017-10-30T04:12:55.023Z,0
2017-10-30T04:13:54.663Z,0
2017-10-30T04:14:55.303Z,0
2017-10-30T04:15:55.280Z,0
2017-10-30T04:16:55.250Z,0
2017-10-30T04:17:54.265Z,0
2017-10-30T04:18:55.198Z,0
2017-10-30T04:19:54.537Z,0
2017-10-30T04:20:55.162Z,0
2017-10-30T04:21:54.516Z,0
2017-10-30T04:22:54.789Z,0
2017-10-30T04:23:54.165Z,0
2017-10-30T04:24:54.436Z,0
2017-10-30T04:25:54.796Z,0
2017-10-30T04:26:54.381Z,0
2017-10-30T04:27:55.071Z,0
2017-10-30T04:28:54.992Z,0
2017-10-30T04:29:54.708Z,0
2017-10-30T04:30:53.992Z,0
2017-10-30T04:31:54.274Z,0
2017-10-30T04:32:54.575Z,0
2017-10-30T04:33:53.901Z,0
2017-10-30T04:34:54.850Z,0
2017-10-30T04:35:54.194Z,0
2017-10-30T04:36:53.963Z,0
2017-10-30T04:37:54.773Z,0
2017-10-30T04:38:54.103Z,0
2017-10-30T04:39:53.436Z,0
2017-10-30T04:40:54.415Z,0
2017-10-30T04:41:54.040Z,0
2017-10-30T04:42:54.664Z,0
2017-10-30T04:43:53.993Z,0
2017-10-30T04:44:54.624Z,0
2017-10-30T04:45:54.272Z,0
2017-10-30T04:46:54.292Z,0
2017-10-30T04:47:54.548Z,0
2017-10-30T04:48:53.935Z,0
2017-10-30T04:49:53.862Z,0
2017-10-30T04:50:54.151Z,0
2017-10-30T04:51:53.874Z,0
2017-10-30T04:52:53.792Z,0
2017-10-30T04:53:53.883Z,0
2017-10-30T04:54:54.085Z,0
2017-10-30T04:55:54.069Z,0
2017-10-30T04:56:53.714Z,0
2017-10-30T04:57:53.772Z,0
2017-10-30T04:58:53.979Z,0
2017-10-30T04:59:53.623Z,0
2017-10-30T05:00:53.608Z,0
2017-10-30T05:01:53.405Z,0
2017-10-30T05:02:52.918Z,0
2017-10-30T05:03:53.862Z,0
2017-10-30T05:04:53.876Z,0
2017-10-30T05:05:53.837Z,0
2017-10-30T05:06:53.163Z,0
2017-10-30T05:07:53.137Z,0
2017-10-30T05:08:53.749Z,0
2017-10-30T05:09:53.415Z,0
2017-10-30T05:10:53.392Z,0
2017-10-30T05:11:53.692Z,0
2017-10-30T05:12:53.761Z,0
2017-10-30T05:13:54.006Z,0
2017-10-30T05:14:54.048Z,0
2017-10-30T05:15:53.624Z,0
2017-10-30T05:16:53.598Z,0
2017-10-30T05:17:53.563Z,0
2017-10-30T05:18:53.525Z,0
2017-10-30T05:19:53.250Z,0
2017-10-30T05:20:53.811Z,0
2017-10-30T05:21:53.160Z,0
2017-10-30T05:22:53.449Z,0
2017-10-30T05:23:53.103Z,0
2017-10-30T05:24:53.405Z,0
2017-10-30T05:25:53.047Z,0
2017-10-30T05:26:53.747Z,0
2017-10-30T05:27:53.339Z,0
2017-10-30T05:28:52.977Z,0
2017-10-30T05:29:53.292Z,0
2017-10-30T05:30:53.685Z,0
2017-10-30T05:31:52.932Z,0
2017-10-30T05:32:52.893Z,0
2017-10-30T05:33:53.255Z,0
2017-10-30T05:34:53.324Z,0
2017-10-30T05:35:52.519Z,0
2017-10-30T05:36:52.803Z,0
2017-10-30T05:37:52.797Z,0
2017-10-30T05:38:52.762Z,0
2017-10-30T05:39:53.111Z,0
2017-10-30T05:40:52.715Z,0
2017-10-30T05:41:53.034Z,0
2017-10-30T05:42:52.970Z,0
2017-10-30T05:43:52.663Z,0
2017-10-30T05:44:52.945Z,0
2017-10-30T05:45:52.922Z,0
2017-10-30T05:46:52.925Z,0
2017-10-30T05:47:52.979Z,0
2017-10-30T05:48:52.517Z,0
2017-10-30T05:49:52.835Z,0
2017-10-30T05:50:52.836Z,0
2017-10-30T05:51:52.162Z,0
2017-10-30T05:52:52.769Z,0
2017-10-30T05:53:52.519Z,0
2017-10-30T05:54:52.740Z,0
2017-10-30T05:55:53.020Z,0
2017-10-30T05:56:52.995Z,0
2017-10-30T05:57:53.188Z,0
2017-10-30T05:58:52.642Z,0
2017-10-30T05:59:52.362Z,0
2017-10-30T06:00:52.656Z,0
2017-10-30T06:01:52.324Z,0
2017-10-30T06:02:52.929Z,0
2017-10-30T06:03:52.965Z,0
2017-10-30T06:04:52.174Z,0
2017-10-30T06:05:52.251Z,0
2017-10-30T06:06:52.885Z,0
2017-10-30T06:07:52.532Z,0
2017-10-30T06:08:52.432Z,0
2017-10-30T06:09:51.828Z,0
2017-10-30T06:10:52.355Z,0
2017-10-30T06:11:51.695Z,0
2017-10-30T06:12:51.984Z,0
2017-10-30T06:13:51.962Z,0
2017-10-30T06:14:51.305Z,0
2017-10-30T06:15:52.652Z,0
2017-10-30T06:16:51.713Z,0
2017-10-30T06:17:52.205Z,0
2017-10-30T06:18:51.940Z,0
2017-10-30T06:19:52.602Z,0
2017-10-30T06:20:52.442Z,0
2017-10-30T06:21:51.483Z,0
2017-10-30T06:22:51.755Z,0
2017-10-30T06:23:51.756Z,0
2017-10-30T06:24:52.368Z,0
2017-10-30T06:25:52.031Z,0
2017-10-30T06:26:52.312Z,0
2017-10-30T06:27:52.325Z,0
2017-10-30T06:28:51.966Z,0
2017-10-30T06:29:51.702Z,0
2017-10-30T06:30:51.638Z,0
2017-10-30T06:31:52.243Z,0
2017-10-30T06:32:52.176Z,0
2017-10-30T06:33:51.178Z,0
2017-10-30T06:34:51.539Z,0
2017-10-30T06:35:51.472Z,0
2017-10-30T06:36:51.508Z,0
2017-10-30T06:37:51.755Z,5
2017-10-30T06:38:51.086Z,5
2017-10-30T06:39:51.752Z,5
2017-10-30T06:40:51.026Z,5
2017-10-30T06:41:51.037Z,5
2017-10-30T06:42:50.983Z,5
2017-10-30T06:43:51.696Z,5
2017-10-30T06:44:50.963Z,5
2017-10-30T06:45:51.576Z,5
2017-10-30T06:46:51.215Z,5
2017-10-30T06:47:51.843Z,5
2017-10-30T06:48:51.175Z,5
2017-10-30T06:49:50.525Z,5
2017-10-30T06:50:51.772Z,5
2017-10-30T06:51:51.115Z,5
2017-10-30T06:52:51.095Z,5
2017-10-30T06:53:51.396Z,5
2017-10-30T06:54:51.716Z,10
2017-10-30T06:55:51.358Z,10
2017-10-30T06:56:50.680Z,10
2017-10-30T06:57:51.614Z,10
2017-10-30T06:58:51.297Z,10
2017-10-30T06:59:51.574Z,10
2017-10-30T07:00:50.581Z,15
2017-10-30T07:01:51.202Z,15
2017-10-30T07:02:51.186Z,15
2017-10-30T07:03:51.508Z,15
2017-10-30T07:04:50.811Z,15
2017-10-30T07:05:51.463Z,15
2017-10-30T07:06:51.132Z,15
2017-10-30T07:07:50.748Z,20
2017-10-30T07:08:50.736Z,20
2017-10-30T07:09:51.032Z,20
2017-10-30T07:10:51.004Z,20
2017-10-30T07:11:51.340Z,25
2017-10-30T07:12:50.966Z,25
2017-10-30T07:13:50.936Z,25
2017-10-30T07:14:51.261Z,25
2017-10-30T07:15:50.249Z,25
2017-10-30T07:16:51.226Z,25
2017-10-30T07:17:51.225Z,20
2017-10-30T07:18:51.201Z,20
2017-10-30T07:19:50.550Z,20
2017-10-30T07:20:50.805Z,25
2017-10-30T07:21:50.803Z,25
2017-10-30T07:22:50.421Z,25
2017-10-30T07:23:50.400Z,25
2017-10-30T07:24:50.998Z,35
2017-10-30T07:25:50.654Z,35
2017-10-30T07:26:50.982Z,35
2017-10-30T07:27:50.410Z,30
2017-10-30T07:28:50.975Z,35
2017-10-30T07:29:50.912Z,35
2017-10-30T07:30:50.606Z,35
2017-10-30T07:31:50.531Z,35
2017-10-30T07:32:50.529Z,40
2017-10-30T07:33:50.488Z,40
2017-10-30T07:34:50.806Z,45
2017-10-30T07:35:50.461Z,60
2017-10-30T07:36:50.192Z,65
2017-10-30T07:37:50.478Z,70
2017-10-30T07:38:50.385Z,85
2017-10-30T07:39:50.783Z,85
2017-10-30T07:40:50.444Z,120
2017-10-30T07:41:50.362Z,125
2017-10-30T07:42:50.716Z,75
2017-10-30T07:43:50.360Z,70
2017-10-30T07:44:50.276Z,65
2017-10-30T07:45:50.365Z,65
2017-10-30T07:46:50.551Z,65
2017-10-30T07:47:50.237Z,70
2017-10-30T07:48:50.503Z,70
2017-10-30T07:49:50.480Z,80
2017-10-30T07:50:50.136Z,70
2017-10-30T07:51:49.807Z,70
2017-10-30T07:52:50.560Z,115
2017-10-30T07:53:49.741Z,60
2017-10-30T07:54:50.379Z,60
2017-10-30T07:55:50.003Z,70
2017-10-30T07:56:50.009Z,75
2017-10-30T07:57:50.330Z,80
2017-10-30T07:58:50.311Z,85
2017-10-30T07:59:49.959Z,85
2017-10-30T08:00:50.361Z,85
2017-10-30T08:01:49.565Z,95
2017-10-30T08:02:50.312Z,165
2017-10-30T08:03:49.205Z,520
2017-10-30T08:04:49.869Z,930
2017-10-30T08:05:50.156Z,970
2017-10-30T08:06:50.150Z,840
2017-10-30T08:07:50.108Z,730
2017-10-30T08:08:50.124Z,865
2017-10-30T08:09:49.717Z,705
2017-10-30T08:10:49.374Z,355
2017-10-30T08:11:49.357Z,190
2017-10-30T08:12:50.043Z,155
2017-10-30T08:13:50.020Z,145
2017-10-30T08:14:49.631Z,135
2017-10-30T08:15:49.944Z,130
2017-10-30T08:16:49.602Z,130
2017-10-30T08:17:49.988Z,125
2017-10-30T08:18:49.228Z,115
2017-10-30T08:19:49.927Z,110
2017-10-30T08:20:49.921Z,105
2017-10-30T08:21:49.509Z,90
2017-10-30T08:22:49.880Z,85
2017-10-30T08:23:49.171Z,85
2017-10-30T08:24:49.223Z,85
2017-10-30T08:25:49.419Z,85
2017-10-30T08:26:49.724Z,95
2017-10-30T08:27:48.766Z,95
2017-10-30T08:28:49.360Z,100
2017-10-30T08:29:49.026Z,100
2017-10-30T08:30:49.066Z,100
2017-10-30T08:31:49.323Z,100
2017-10-30T08:32:48.995Z,95
2017-10-30T08:33:49.281Z,90
2017-10-30T08:34:49.022Z,85
2017-10-30T08:35:48.897Z,80
2017-10-30T08:36:49.625Z,75
2017-10-30T08:37:49.196Z,80
2017-10-30T08:38:49.550Z,70
2017-10-30T08:39:49.145Z,65
2017-10-30T08:40:49.184Z,65
2017-10-30T08:41:48.474Z,65
2017-10-30T08:42:49.524Z,75
2017-10-30T08:43:48.729Z,75
2017-10-30T08:44:49.386Z,75
2017-10-30T08:45:49.097Z,80
2017-10-30T08:46:49.084Z,95
2017-10-30T08:47:48.714Z,95
2017-10-30T08:48:48.995Z,95
2017-10-30T08:49:49.307Z,105
2017-10-30T08:50:49.334Z,105
2017-10-30T08:51:49.265Z,110
2017-10-30T08:52:48.985Z,120
2017-10-30T08:53:49.287Z,130
2017-10-30T08:54:49.285Z,155
2017-10-30T08:55:48.876Z,200
2017-10-30T08:56:48.233Z,250
2017-10-30T08:57:49.147Z,250
2017-10-30T08:58:49.075Z,410
2017-10-30T08:59:49.198Z,625
2017-10-30T09:00:49.098Z,820
2017-10-30T09:01:48.041Z,1050
2017-10-30T09:02:48.772Z,1030
2017-10-30T09:03:48.802Z,1105
2017-10-30T09:04:49.025Z,1035
2017-10-30T09:05:48.674Z,900
2017-10-30T09:06:48.628Z,1175
2017-10-30T09:07:48.256Z,1165
2017-10-30T09:08:48.273Z,1170
2017-10-30T09:09:48.642Z,730
2017-10-30T09:10:48.548Z,645
2017-10-30T09:11:48.526Z,665
2017-10-30T09:12:48.891Z,620
2017-10-30T09:13:48.515Z,780
2017-10-30T09:14:48.487Z,225
2017-10-30T09:15:48.477Z,140
2017-10-30T09:16:48.790Z,115
2017-10-30T09:17:48.121Z,90
2017-10-30T09:18:48.769Z,75
2017-10-30T09:19:48.446Z,70
2017-10-30T09:20:48.406Z,65
2017-10-30T09:21:48.077Z,60
2017-10-30T09:22:48.464Z,55
2017-10-30T09:23:48.121Z,50
2017-10-30T09:24:48.404Z,45
2017-10-30T09:25:48.415Z,45
2017-10-30T09:26:48.311Z,45
2017-10-30T09:27:47.970Z,45
2017-10-30T09:28:48.282Z,50
2017-10-30T09:29:48.568Z,50
2017-10-30T09:30:48.242Z,60
2017-10-30T09:31:48.220Z,65
2017-10-30T09:32:48.224Z,70
2017-10-30T09:33:48.580Z,70
2017-10-30T09:34:48.173Z,75
2017-10-30T09:35:48.200Z,85
2017-10-30T09:36:47.834Z,95
2017-10-30T09:37:48.441Z,105
2017-10-30T09:38:48.421Z,135
2017-10-30T09:39:48.382Z,165
2017-10-30T09:40:48.043Z,300
2017-10-30T09:41:48.036Z,550
2017-10-30T09:42:47.692Z,900
2017-10-30T09:43:48.402Z,900
2017-10-30T09:44:48.314Z,950
2017-10-30T09:45:47.977Z,940
2017-10-30T09:46:47.653Z,350
2017-10-30T09:47:48.279Z,1035
2017-10-30T09:48:47.598Z,825
2017-10-30T09:49:47.904Z,700
2017-10-30T09:50:48.227Z,470
2017-10-30T09:51:48.203Z,420
2017-10-30T09:52:47.876Z,265
2017-10-30T09:53:47.836Z,200
2017-10-30T09:54:48.139Z,170
2017-10-30T09:55:48.134Z,135
2017-10-30T09:56:48.132Z,125
2017-10-30T09:57:48.103Z,125
2017-10-30T09:58:47.763Z,125
2017-10-30T09:59:48.087Z,120
2017-10-30T10:00:47.754Z,125
2017-10-30T10:01:48.050Z,130
2017-10-30T10:02:47.392Z,140
2017-10-30T10:03:47.704Z,140
2017-10-30T10:04:48.017Z,170
2017-10-30T10:05:47.654Z,155
2017-10-30T10:06:47.956Z,145
2017-10-30T10:07:47.953Z,150
2017-10-30T10:08:47.943Z,155
2017-10-30T10:09:46.920Z,155
2017-10-30T10:10:47.912Z,155
2017-10-30T10:11:47.886Z,145
2017-10-30T10:12:47.864Z,140
2017-10-30T10:13:47.844Z,150
2017-10-30T10:14:47.849Z,155
2017-10-30T10:15:47.796Z,200
2017-10-30T10:16:47.796Z,185
2017-10-30T10:17:47.117Z,195
2017-10-30T10:18:47.455Z,145
2017-10-30T10:19:47.750Z,140
2017-10-30T10:20:47.729Z,145
2017-10-30T10:21:47.407Z,155
2017-10-30T10:22:47.702Z,175
2017-10-30T10:23:47.693Z,210
2017-10-30T10:24:47.641Z,265
2017-10-30T10:25:47.299Z,175
2017-10-30T10:26:46.951Z,160
2017-10-30T10:27:46.952Z,150
2017-10-30T10:28:47.248Z,155
2017-10-30T10:29:47.545Z,160
2017-10-30T10:30:46.889Z,170
2017-10-30T10:31:47.522Z,175
2017-10-30T10:32:47.537Z,180
2017-10-30T10:33:46.860Z,205
2017-10-30T10:34:47.141Z,220
2017-10-30T10:35:47.124Z,200
2017-10-30T10:36:47.212Z,490
2017-10-30T10:37:47.410Z,220
2017-10-30T10:38:46.761Z,195
2017-10-30T10:39:47.397Z,190
2017-10-30T10:40:46.823Z,250
2017-10-30T10:41:47.025Z,185
2017-10-30T10:42:47.095Z,185
2017-10-30T10:43:47.038Z,410
2017-10-30T10:44:46.647Z,180
2017-10-30T10:45:47.262Z,365
2017-10-30T10:46:46.947Z,650
2017-10-30T10:47:46.925Z,630
2017-10-30T10:48:47.250Z,605
2017-10-30T10:49:46.572Z,605
2017-10-30T10:50:47.220Z,590
2017-10-30T10:51:47.174Z,585
2017-10-30T10:52:46.845Z,565
2017-10-30T10:53:46.853Z,560
2017-10-30T10:54:46.795Z,565
2017-10-30T10:55:46.790Z,570
2017-10-30T10:56:46.829Z,570
2017-10-30T10:57:47.126Z,355
2017-10-30T10:58:46.773Z,340
2017-10-30T10:59:46.730Z,385
2017-10-30T11:00:47.064Z,430
2017-10-30T11:01:47.018Z,485
2017-10-30T11:02:46.683Z,475
2017-10-30T11:03:47.009Z,465
2017-10-30T11:04:46.693Z,450
2017-10-30T11:05:46.631Z,440
2017-10-30T11:06:47.077Z,435
2017-10-30T11:07:46.767Z,440
2017-10-30T11:08:46.622Z,435
2017-10-30T11:09:46.270Z,430
2017-10-30T11:10:46.914Z,425
2017-10-30T11:11:46.261Z,420
2017-10-30T11:12:46.573Z,420
2017-10-30T11:13:46.632Z,425
2017-10-30T11:14:46.644Z,425
2017-10-30T11:15:46.903Z,430
2017-10-30T11:16:46.517Z,435
2017-10-30T11:17:46.584Z,445
2017-10-30T11:18:46.901Z,445
2017-10-30T11:19:46.822Z,375
2017-10-30T11:20:46.133Z,300
2017-10-30T11:21:46.533Z,390
2017-10-30T11:22:46.873Z,385
2017-10-30T11:23:46.468Z,295
2017-10-30T11:24:46.837Z,410
2017-10-30T11:25:46.840Z,230
2017-10-30T11:26:46.436Z,365
2017-10-30T11:27:46.499Z,405
2017-10-30T11:28:46.063Z,340
2017-10-30T11:29:46.676Z,250
2017-10-30T11:30:46.372Z,135
2017-10-30T11:31:46.691Z,265
2017-10-30T11:32:46.752Z,225
2017-10-30T11:33:46.383Z,210
2017-10-30T11:34:46.612Z,235
2017-10-30T11:35:46.674Z,180
2017-10-30T11:36:46.266Z,160
2017-10-30T11:37:46.246Z,165
2017-10-30T11:38:46.553Z,160
2017-10-30T11:39:46.068Z,395
2017-10-30T11:40:46.203Z,180
2017-10-30T11:41:46.216Z,155
2017-10-30T11:42:45.842Z,150
2017-10-30T11:43:46.501Z,220
2017-10-30T11:44:46.155Z,170
2017-10-30T11:45:46.530Z,150
2017-10-30T11:46:46.142Z,145
2017-10-30T11:47:45.787Z,440
2017-10-30T11:48:46.365Z,400
2017-10-30T11:49:46.096Z,405
2017-10-30T11:50:46.434Z,445
2017-10-30T11:51:46.408Z,440
2017-10-30T11:52:46.044Z,225
2017-10-30T11:53:45.687Z,210
2017-10-30T11:54:46.004Z,155
2017-10-30T11:55:45.671Z,110
2017-10-30T11:56:45.972Z,100
2017-10-30T11:57:45.663Z,100
2017-10-30T11:58:45.620Z,95
2017-10-30T11:59:45.942Z,85
2017-10-30T12:00:46.242Z,80
2017-10-30T12:01:45.882Z,85
2017-10-30T12:02:45.572Z,85
2017-10-30T12:03:45.558Z,110
2017-10-30T12:04:46.163Z,85
2017-10-30T12:05:45.824Z,75
2017-10-30T12:06:45.887Z,75
2017-10-30T12:07:45.821Z,70
2017-10-30T12:08:45.470Z,65
2017-10-30T12:09:45.467Z,65
2017-10-30T12:10:46.075Z,65
2017-10-30T12:11:45.422Z,75
2017-10-30T12:12:45.725Z,85
2017-10-30T12:13:45.709Z,95
2017-10-30T12:14:45.686Z,100
2017-10-30T12:15:45.655Z,150
2017-10-30T12:16:45.682Z,120
2017-10-30T12:17:45.753Z,220
2017-10-30T12:18:45.626Z,255
2017-10-30T12:19:45.651Z,230
2017-10-30T12:20:45.573Z,260
2017-10-30T12:21:45.898Z,250
2017-10-30T12:22:45.893Z,245
2017-10-30T12:23:45.552Z,245
2017-10-30T12:24:45.320Z,245
2017-10-30T12:25:45.860Z,245
2017-10-30T12:26:45.808Z,240
2017-10-30T12:27:45.492Z,235
2017-10-30T12:28:45.142Z,235
2017-10-30T12:29:45.782Z,240
2017-10-30T12:30:45.734Z,240
2017-10-30T12:31:45.460Z,235
2017-10-30T12:32:45.757Z,230
2017-10-30T12:33:45.075Z,230
2017-10-30T12:34:45.357Z,225
2017-10-30T12:35:45.675Z,230
2017-10-30T12:36:45.691Z,225
2017-10-30T12:37:45.651Z,230
2017-10-30T12:38:45.636Z,230
2017-10-30T12:39:45.315Z,230
2017-10-30T12:40:45.609Z,225
2017-10-30T12:41:45.594Z,230
2017-10-30T12:42:45.587Z,235
2017-10-30T12:43:45.229Z,230
2017-10-30T12:44:45.302Z,230
2017-10-30T12:45:44.624Z,215
2017-10-30T12:46:45.515Z,230
2017-10-30T12:47:45.480Z,230
2017-10-30T12:48:44.944Z,230
2017-10-30T12:49:45.154Z,230
2017-10-30T12:50:45.480Z,230
2017-10-30T12:51:45.480Z,230
2017-10-30T12:52:44.768Z,120
2017-10-30T12:53:45.434Z,115
2017-10-30T12:54:45.400Z,230
2017-10-30T12:55:45.048Z,125
2017-10-30T12:56:45.387Z,225
2017-10-30T12:57:45.059Z,145
2017-10-30T12:58:45.338Z,90
2017-10-30T12:59:45.320Z,215
2017-10-30T13:00:45.341Z,135
2017-10-30T13:01:45.410Z,225
2017-10-30T13:02:45.399Z,225
2017-10-30T13:03:45.373Z,225
2017-10-30T13:04:45.282Z,230
2017-10-30T13:05:44.889Z,225
2017-10-30T13:06:44.875Z,220
2017-10-30T13:07:44.864Z,220
2017-10-30T13:08:44.541Z,220
2017-10-30T13:09:45.224Z,220
2017-10-30T13:10:45.236Z,220
2017-10-30T13:11:45.238Z,220
2017-10-30T13:12:44.819Z,215
2017-10-30T13:13:44.441Z,215
2017-10-30T13:14:44.829Z,220
2017-10-30T13:15:45.172Z,220
2017-10-30T13:16:45.083Z,215
2017-10-30T13:17:44.702Z,215
2017-10-30T13:18:45.081Z,215
2017-10-30T13:19:44.504Z,215
2017-10-30T13:20:44.670Z,215
2017-10-30T13:21:45.009Z,215
2017-10-30T13:22:44.298Z,215
2017-10-30T13:23:45.025Z,215
2017-10-30T13:24:44.938Z,215
2017-10-30T13:25:44.580Z,215
2017-10-30T13:26:44.259Z,210
2017-10-30T13:27:44.567Z,185
2017-10-30T13:28:44.897Z,205
2017-10-30T13:29:44.543Z,215
2017-10-30T13:30:44.548Z,190
2017-10-30T13:31:44.504Z,110
2017-10-30T13:32:44.493Z,150
2017-10-30T13:33:44.501Z,80
2017-10-30T13:34:44.433Z,70
2017-10-30T13:35:44.431Z,65
2017-10-30T13:36:44.103Z,60
2017-10-30T13:37:44.393Z,60
2017-10-30T13:38:44.041Z,55
2017-10-30T13:39:44.364Z,55
2017-10-30T13:40:44.032Z,55
2017-10-30T13:41:44.645Z,155
2017-10-30T13:42:44.650Z,85
2017-10-30T13:43:44.311Z,85
2017-10-30T13:44:44.684Z,100
2017-10-30T13:45:44.287Z,195
2017-10-30T13:46:44.279Z,105
2017-10-30T13:47:44.581Z,145
2017-10-30T13:48:44.226Z,200
2017-10-30T13:49:43.878Z,190
2017-10-30T13:50:44.225Z,160
2017-10-30T13:51:44.485Z,180
2017-10-30T13:52:43.834Z,195
2017-10-30T13:53:44.129Z,190
2017-10-30T13:54:43.473Z,185
2017-10-30T13:55:44.442Z,185
2017-10-30T13:56:44.089Z,185
2017-10-30T13:57:44.385Z,185
2017-10-30T13:58:44.403Z,185
2017-10-30T13:59:44.062Z,190
2017-10-30T14:00:44.010Z,190
2017-10-30T14:01:43.664Z,185
2017-10-30T14:02:44.310Z,185
2017-10-30T14:03:44.329Z,185
2017-10-30T14:04:43.641Z,185
2017-10-30T14:05:44.321Z,185
2017-10-30T14:06:43.266Z,185
2017-10-30T14:07:43.585Z,185
2017-10-30T14:08:44.213Z,190
2017-10-30T14:09:44.257Z,85
2017-10-30T14:10:43.559Z,80
2017-10-30T14:11:43.502Z,70
2017-10-30T14:12:43.858Z,65
2017-10-30T14:13:43.811Z,65
2017-10-30T14:14:43.482Z,70
2017-10-30T14:15:43.144Z,50
2017-10-30T14:16:43.772Z,45
2017-10-30T14:17:43.419Z,35
2017-10-30T14:18:43.094Z,35